createdAt,value
2018-01-20T00:02:20.679Z,96.40
2018-01-20T00:04:48.852Z,96.31
2018-01-20T00:07:16.946Z,96.23
2018-01-20T00:09:56.762Z,96.19
2018-01-20T00:12:25.570Z,96.00
2018-01-20T00:14:55.426Z,95.90
2018-01-20T00:17:23.454Z,95.85
2018-01-20T00:19:51.627Z,95.73
2018-01-20T01:59:22.627Z,94.32
2018-01-20T02:01:50.593Z,94.17
2018-01-20T02:04:18.577Z,94.12
2018-01-20T02:06:46.545Z,94.09
2018-01-20T02:09:16.420Z,93.90
2018-01-20T02:11:44.338Z,93.72
2018-01-20T02:14:12.358Z,93.79
2018-01-20T02:16:57.663Z,93.65
2018-01-20T02:19:29.694Z,93.75
2018-01-20T02:21:57.619Z,93.96
2018-01-20T02:24:25.693Z,94.43
2018-01-20T02:26:53.767Z,94.56
2018-01-20T02:29:22.765Z,94.39
2018-01-20T02:31:50.735Z,94.31
2018-01-20T02:34:21.480Z,94.31
2018-01-20T02:36:49.452Z,94.43
2018-01-20T02:39:21.010Z,94.49
2018-01-20T02:41:48.981Z,94.40
2018-01-20T02:44:18.055Z,94.41
2018-01-20T02:46:47.077Z,94.45
2018-01-20T02:49:16.406Z,94.72
2018-01-20T02:51:44.349Z,94.85
2018-01-20T02:54:25.202Z,94.91
2018-01-20T02:56:54.935Z,94.98
2018-01-20T02:59:22.902Z,94.94
2018-01-20T03:01:50.979Z,94.85
2018-01-20T03:04:18.853Z,94.84
2018-01-20T03:06:47.753Z,94.66
2018-01-20T03:09:15.695Z,94.70
2018-01-20T03:11:46.253Z,94.57
2018-01-20T03:14:14.222Z,94.51
2018-01-20T03:16:45.239Z,94.49
2018-01-20T03:19:16.403Z,94.46
2018-01-20T03:21:44.603Z,94.25
2018-01-20T03:26:46.907Z,93.92
2018-01-20T03:29:15.515Z,93.90
2018-01-20T03:31:43.548Z,93.76
2018-01-20T03:34:15.321Z,93.66
2018-01-20T03:36:43.302Z,93.63
2018-01-20T03:39:12.125Z,93.60
2018-01-20T03:41:40.471Z,93.66
2018-01-20T03:44:08.559Z,93.62
2018-01-20T03:46:36.459Z,93.81
2018-01-20T03:49:04.489Z,93.92
2018-01-20T03:51:42.587Z,94.07
2018-01-20T03:54:10.636Z,94.35
2018-01-20T03:56:39.477Z,94.48
2018-01-20T03:59:07.761Z,94.56
2018-01-20T04:01:35.847Z,94.74
2018-01-20T04:04:04.538Z,94.76
2018-01-20T04:06:32.581Z,94.83
2018-01-20T04:09:01.488Z,94.78
2018-01-20T04:11:31.290Z,94.90
2018-01-20T04:13:59.374Z,94.82
2018-01-20T04:16:36.282Z,94.64
2018-01-20T04:19:04.677Z,94.59
2018-01-20T04:21:32.567Z,94.50
2018-01-20T04:24:00.578Z,94.49
2018-01-20T04:26:28.799Z,94.54
2018-01-20T04:28:56.917Z,94.51
2018-01-20T04:31:24.959Z,94.67
2018-01-20T04:33:52.843Z,94.74
2018-01-20T04:36:21.037Z,94.74
2018-01-20T04:38:49.839Z,94.79
2018-01-20T04:41:31.469Z,94.73
2018-01-20T04:43:59.425Z,94.66
2018-01-20T04:46:27.376Z,94.68
2018-01-20T04:48:56.564Z,94.50
2018-01-20T04:51:24.444Z,94.50
2018-01-20T04:53:53.733Z,94.36
2018-01-20T04:56:22.153Z,94.20
2018-01-20T04:58:50.865Z,94.11
2018-01-20T05:01:19.491Z,94.00
2018-01-20T05:03:47.665Z,94.01
2018-01-20T05:06:15.645Z,93.94
2018-01-20T05:08:46.791Z,93.87
2018-01-20T05:11:15.435Z,93.81
2018-01-20T05:13:44.445Z,93.83
2018-01-20T05:16:14.991Z,93.79
2018-01-20T05:18:46.359Z,93.81
2018-01-20T05:21:15.209Z,93.62
2018-01-20T05:23:43.130Z,93.52
2018-01-20T05:26:11.098Z,93.34
2018-01-20T05:28:39.288Z,92.91
2018-01-20T05:33:47.598Z,92.80
2018-01-20T05:36:15.634Z,92.70
2018-01-20T05:38:44.562Z,92.83
2018-01-20T05:41:17.551Z,92.74
2018-01-20T05:43:48.158Z,92.78
2018-01-20T05:46:18.016Z,92.61
2018-01-20T05:48:47.778Z,92.28
2018-01-20T05:51:17.122Z,92.19
2018-01-20T05:53:47.581Z,92.40
2018-01-20T05:56:31.180Z,92.21
2018-01-20T05:59:00.161Z,92.07
2018-01-20T06:01:28.452Z,92.17
2018-01-20T06:03:58.056Z,92.27
2018-01-20T06:06:35.445Z,92.05
2018-01-20T06:11:44.991Z,92.05
2018-01-20T06:14:14.561Z,92.16
2018-01-20T06:16:49.430Z,92.06
2018-01-20T06:19:20.485Z,91.90
2018-01-20T06:21:48.559Z,91.84
2018-01-20T06:24:20.124Z,91.48
2018-01-20T06:26:48.285Z,91.47
2018-01-20T06:29:16.261Z,91.25
2018-01-20T06:31:50.679Z,91.02
2018-01-20T06:34:18.668Z,90.79
2018-01-20T06:36:46.728Z,90.69
2018-01-20T06:39:15.429Z,90.65
2018-01-20T06:41:43.494Z,90.66
2018-01-20T06:44:11.564Z,90.25
2018-01-20T06:46:39.740Z,89.96
2018-01-20T06:49:07.865Z,89.89
2018-01-20T06:51:42.330Z,89.83
2018-01-20T06:54:10.956Z,89.59
2018-01-20T06:56:39.922Z,89.56
2018-01-20T06:59:10.474Z,89.15
2018-01-20T07:01:38.425Z,88.75
2018-01-20T07:04:06.476Z,88.44
2018-01-20T07:06:34.442Z,87.74
2018-01-20T07:09:02.346Z,87.87
2018-01-20T07:11:30.738Z,87.64
2018-01-20T07:13:58.594Z,87.49
2018-01-20T07:16:26.672Z,87.34
2018-01-20T07:18:54.639Z,87.13
2018-01-20T07:21:22.814Z,87.29
2018-01-20T07:23:50.894Z,87.15
2018-01-20T07:26:21.646Z,86.79
2018-01-20T07:28:49.916Z,86.63
2018-01-20T07:31:17.996Z,86.06
2018-01-20T07:33:45.960Z,85.52
2018-01-20T07:36:14.134Z,85.51
2018-01-20T07:38:44.674Z,84.72
2018-01-20T07:41:14.407Z,84.51
2018-01-20T07:43:42.450Z,84.20
2018-01-20T07:46:11.185Z,84.08
2018-01-20T07:48:39.238Z,83.36
2018-01-20T07:51:07.194Z,83.67
2018-01-20T07:53:36.794Z,85.13
2018-01-20T07:56:04.871Z,86.24
2018-01-20T07:58:32.931Z,87.38
2018-01-20T08:01:00.918Z,88.67
2018-01-20T08:03:29.574Z,90.02
2018-01-20T08:05:57.594Z,91.36
2018-01-20T08:08:25.496Z,92.29
2018-01-20T08:10:55.874Z,93.22
2018-01-20T08:13:25.129Z,93.98
2018-01-20T08:15:55.544Z,94.96
2018-01-20T08:18:26.559Z,95.59
2018-01-20T08:20:55.095Z,96.09
2018-01-20T08:23:22.790Z,96.37
2018-01-20T08:25:52.229Z,96.56
2018-01-20T08:28:22.607Z,96.59
2018-01-20T08:30:51.263Z,96.79
2018-01-20T08:33:20.855Z,96.75
2018-01-20T08:35:49.430Z,96.91
2018-01-20T08:38:18.071Z,96.87
2018-01-20T08:40:49.001Z,96.85
2018-01-20T08:43:18.013Z,96.95
2018-01-20T08:45:46.896Z,96.79
2018-01-20T08:48:14.615Z,96.65
2018-01-20T08:50:42.411Z,96.52
2018-01-20T08:53:10.083Z,96.42
2018-01-20T08:55:38.770Z,96.28
2018-01-20T08:58:08.316Z,96.11
2018-01-20T09:00:38.147Z,95.93
2018-01-20T09:03:06.710Z,95.71
2018-01-20T09:05:36.149Z,95.49
2018-01-20T09:08:04.011Z,95.49
2018-01-20T09:10:31.671Z,95.23
2018-01-20T09:13:01.457Z,95.18
2018-01-20T09:15:29.876Z,95.13
2018-01-20T09:17:59.480Z,94.45
2018-01-20T09:20:27.255Z,94.23
2018-01-20T09:22:55.003Z,93.76
2018-01-20T09:25:22.693Z,93.67
2018-01-20T09:27:52.218Z,93.69
2018-01-20T09:30:19.973Z,93.35
2018-01-20T09:32:51.068Z,93.03
2018-01-20T09:35:19.659Z,92.67
2018-01-20T09:37:47.333Z,92.63
2018-01-20T09:40:15.107Z,92.48
2018-01-20T09:42:42.907Z,92.64
2018-01-20T09:45:12.320Z,92.57
2018-01-20T09:47:40.081Z,92.84
2018-01-20T09:50:10.045Z,92.46
2018-01-20T09:52:37.754Z,92.43
2018-01-20T09:55:08.089Z,92.32
2018-01-20T09:57:35.800Z,91.73
2018-01-20T10:00:03.649Z,91.77
2018-01-20T10:02:31.359Z,91.16
2018-01-20T10:04:59.044Z,91.63
2018-01-20T10:07:27.485Z,91.72
2018-01-20T10:09:56.033Z,91.35
2018-01-20T10:12:23.774Z,91.35
2018-01-20T10:14:53.200Z,90.84
2018-01-20T10:17:21.890Z,90.79
2018-01-20T10:19:49.635Z,90.78
2018-01-20T10:22:18.318Z,91.14
2018-01-20T10:24:47.454Z,90.99
2018-01-20T10:27:15.329Z,90.07
2018-01-20T10:29:43.110Z,89.72
2018-01-20T10:32:10.850Z,89.63
2018-01-20T10:34:38.526Z,89.30
2018-01-20T10:37:06.243Z,89.07
2018-01-20T10:39:34.112Z,88.44
2018-01-20T10:42:03.947Z,88.19
2018-01-20T10:44:32.408Z,88.60
2018-01-20T10:47:01.858Z,88.56
2018-01-20T10:49:29.632Z,87.80
2018-01-20T10:51:57.427Z,87.94
2018-01-20T10:54:25.202Z,87.68
2018-01-20T10:56:55.547Z,86.98
2018-01-20T10:59:23.307Z,86.76
2018-01-20T11:01:51.048Z,87.19
2018-01-20T11:04:19.667Z,87.28
2018-01-20T11:06:49.869Z,87.79
2018-01-20T11:09:17.576Z,87.23
2018-01-20T11:11:45.261Z,87.11
2018-01-20T11:14:13.809Z,87.42
2018-01-20T11:16:41.593Z,85.92
2018-01-20T11:19:09.458Z,85.90
2018-01-20T11:21:37.247Z,85.99
2018-01-20T11:24:05.022Z,85.93
2018-01-20T11:26:33.564Z,85.79
2018-01-20T11:29:01.244Z,84.57
2018-01-20T11:31:28.920Z,84.97
2018-01-20T11:33:56.660Z,84.67
2018-01-20T11:36:26.465Z,84.70
2018-01-20T11:38:55.075Z,85.22
2018-01-20T11:41:22.953Z,85.04
2018-01-20T11:43:50.656Z,85.34
2018-01-20T11:46:18.369Z,84.82
2018-01-20T11:48:47.306Z,84.99
2018-01-20T11:51:14.972Z,85.31
2018-01-20T11:53:42.655Z,85.82
2018-01-20T11:56:12.081Z,85.62
2018-01-20T11:58:41.971Z,85.55
2018-01-20T12:01:12.579Z,84.71
2018-01-20T12:03:41.057Z,85.18
2018-01-20T12:06:08.736Z,85.61
2018-01-20T12:08:37.247Z,85.41
2018-01-20T12:11:05.044Z,85.62
2018-01-20T12:13:32.958Z,85.77
2018-01-20T12:16:00.642Z,85.70
2018-01-20T12:18:28.477Z,86.06
2018-01-20T12:20:56.187Z,85.94
2018-01-20T12:23:24.747Z,86.39
2018-01-20T12:25:53.347Z,87.34
2018-01-20T12:28:21.838Z,87.91
2018-01-20T12:30:50.394Z,88.95
2018-01-20T12:33:18.182Z,89.46
2018-01-20T12:35:47.737Z,89.75
2018-01-20T12:38:18.463Z,89.59
2018-01-20T12:40:47.119Z,90.05
2018-01-20T12:43:17.719Z,89.45
2018-01-20T12:45:46.949Z,89.15
2018-01-20T12:48:14.713Z,88.98
2018-01-20T12:50:42.963Z,89.52
2018-01-20T12:53:10.765Z,89.23
2018-01-20T12:55:38.551Z,88.86
2018-01-20T12:58:08.930Z,88.70
2018-01-20T13:00:39.295Z,89.06
2018-01-20T13:03:07.034Z,89.35
2018-01-20T13:05:34.941Z,89.83
2018-01-20T13:08:03.503Z,90.31
2018-01-20T13:10:32.943Z,90.17
2018-01-20T13:13:02.390Z,90.43
2018-01-20T13:15:30.106Z,90.65
2018-01-20T13:17:58.230Z,90.19
2018-01-20T13:20:26.179Z,90.35
2018-01-20T13:22:53.999Z,89.76
2018-01-20T13:25:21.689Z,90.00
2018-01-20T13:27:51.313Z,89.75
2018-01-20T13:30:19.171Z,89.99
2018-01-20T13:32:48.821Z,89.68
2018-01-20T13:35:18.213Z,89.24
2018-01-20T13:37:47.953Z,89.13
2018-01-20T13:40:16.973Z,86.89
2018-01-20T13:42:45.673Z,86.96
2018-01-20T13:45:13.518Z,87.61
2018-01-20T13:47:41.329Z,86.00
2018-01-20T13:50:09.880Z,86.67
2018-01-20T13:52:37.751Z,86.17
2018-01-20T13:55:09.295Z,86.24
2018-01-20T13:57:38.654Z,84.59
2018-01-20T14:00:06.526Z,84.96
2018-01-20T14:02:36.089Z,84.39
2018-01-20T14:05:05.612Z,84.31
2018-01-20T14:07:33.530Z,84.42
2018-01-20T14:10:01.315Z,85.01
2018-01-20T14:12:29.915Z,85.03
2018-01-20T14:14:57.692Z,84.88
2018-01-20T14:17:27.166Z,85.11
2018-01-20T14:19:55.021Z,85.76
2018-01-20T14:22:23.441Z,85.47
2018-01-20T14:24:51.141Z,85.29
2018-01-20T14:27:19.721Z,85.19
2018-01-20T14:29:51.106Z,85.43
2018-01-20T14:32:18.870Z,85.02
2018-01-20T14:34:46.572Z,84.33
2018-01-20T14:37:14.477Z,84.40
2018-01-20T14:39:42.266Z,83.87
2018-01-20T14:42:12.660Z,83.84
2018-01-20T14:44:41.132Z,84.13
2018-01-20T14:47:09.006Z,84.63
2018-01-20T14:49:36.721Z,83.70
2018-01-20T14:52:06.142Z,83.71
2018-01-20T14:54:33.956Z,83.80
2018-01-20T14:57:01.598Z,83.85
2018-01-20T14:59:31.943Z,83.79
2018-01-20T15:02:00.424Z,83.75
2018-01-20T15:04:29.849Z,83.27
2018-01-20T15:06:57.800Z,83.02
2018-01-20T15:09:27.205Z,83.43
2018-01-20T15:11:54.946Z,83.45
2018-01-20T15:14:24.392Z,83.22
2018-01-20T15:16:53.780Z,83.21
2018-01-20T15:19:22.250Z,83.62
2018-01-20T15:21:49.968Z,83.88
2018-01-20T15:24:17.702Z,83.91
2018-01-20T15:26:45.397Z,84.19
2018-01-20T15:29:13.050Z,84.41
2018-01-20T15:31:42.748Z,84.58
2018-01-20T15:34:10.440Z,84.83
2018-01-20T15:36:39.828Z,84.97
2018-01-20T15:39:07.526Z,85.14
2018-01-20T15:41:36.938Z,85.38
2018-01-20T15:44:04.678Z,85.50
2018-01-20T15:46:32.430Z,85.60
2018-01-20T15:49:01.769Z,85.74
2018-01-20T15:51:29.498Z,86.19
2018-01-20T15:53:57.224Z,86.32
2018-01-20T15:56:24.918Z,86.66
2018-01-20T15:58:52.602Z,86.86
2018-01-20T16:01:20.252Z,86.98
2018-01-20T16:03:51.031Z,87.17
2018-01-20T16:06:18.701Z,87.30
2018-01-20T16:08:48.531Z,87.53
2018-01-20T16:11:16.420Z,87.70
2018-01-20T16:13:44.864Z,87.79
2018-01-20T16:16:14.256Z,87.66
2018-01-20T16:18:42.105Z,87.43
2018-01-20T16:21:09.909Z,87.35
2018-01-20T16:23:37.595Z,87.48
2018-01-20T16:26:09.881Z,87.73
2018-01-20T16:28:37.607Z,87.80
2018-01-20T16:31:07.226Z,88.19
2018-01-20T16:33:35.776Z,88.23
2018-01-20T16:36:05.220Z,88.30
2018-01-20T16:38:35.089Z,88.35
2018-01-20T16:41:02.948Z,88.58
2018-01-20T16:43:30.636Z,88.67
2018-01-20T16:45:58.319Z,88.49
2018-01-20T16:48:26.025Z,88.51
2018-01-20T16:50:53.693Z,88.44
2018-01-20T16:53:22.843Z,88.46
2018-01-20T16:55:50.498Z,88.28
2018-01-20T16:58:19.174Z,88.29
2018-01-20T17:00:46.846Z,88.79
2018-01-20T17:03:14.518Z,89.21
2018-01-20T17:05:43.817Z,89.55
2018-01-20T17:08:11.554Z,89.64
2018-01-20T17:10:40.322Z,89.66
2018-01-20T17:13:08.087Z,89.57
2018-01-20T17:15:36.698Z,89.76
2018-01-20T17:18:04.384Z,89.96
2018-01-20T17:20:32.132Z,90.24
2018-01-20T17:22:59.836Z,90.23
2018-01-20T17:25:29.291Z,90.55
2018-01-20T17:27:57.008Z,90.76
2018-01-20T17:30:24.723Z,90.63
2018-01-20T17:32:52.472Z,90.50
2018-01-20T17:35:20.289Z,90.63
2018-01-20T17:37:50.781Z,90.20
2018-01-20T17:40:18.530Z,90.18
2018-01-20T17:42:46.291Z,90.15
2018-01-20T17:45:14.070Z,90.06
2018-01-20T17:47:44.052Z,89.98
2018-01-20T17:50:11.789Z,89.81
2018-01-20T17:52:39.587Z,90.00
2018-01-20T17:55:07.743Z,89.85
2018-01-20T17:57:38.678Z,89.52
2018-01-20T18:00:06.705Z,89.02
2018-01-20T18:05:53.993Z,89.53
2018-01-20T18:08:21.661Z,89.62
2018-01-20T18:10:49.324Z,89.32
2018-01-20T18:13:17.066Z,89.11
2018-01-20T18:15:44.780Z,89.20
2018-01-20T18:18:12.738Z,89.57
2018-01-20T18:20:42.077Z,89.94
2018-01-20T18:23:09.894Z,90.60
2018-01-20T18:25:39.511Z,90.77
2018-01-20T18:28:07.546Z,91.23
2018-01-20T18:30:36.015Z,91.80
2018-01-20T18:33:03.868Z,92.31
2018-01-20T18:35:32.467Z,92.53
2018-01-20T18:38:01.979Z,92.77
2018-01-20T18:40:29.915Z,93.29
2018-01-20T18:42:59.374Z,93.86
2018-01-20T18:45:27.132Z,94.04
2018-01-20T18:47:54.804Z,94.45
2018-01-20T18:50:22.573Z,95.05
2018-01-20T18:52:50.274Z,95.09
2018-01-20T18:55:17.966Z,95.30
2018-01-20T18:57:45.703Z,95.43
2018-01-20T19:00:13.412Z,95.55
2018-01-20T19:02:43.923Z,95.68
2018-01-20T19:05:11.759Z,95.93
2018-01-20T19:07:41.172Z,96.01
2018-01-20T19:10:08.958Z,96.11
2018-01-20T19:12:38.547Z,96.23
2018-01-20T19:15:06.359Z,96.31
2018-01-20T19:17:34.171Z,96.55
2018-01-20T19:20:01.882Z,96.67
2018-01-20T19:22:29.619Z,96.77
2018-01-20T19:24:57.396Z,96.82
2018-01-20T19:27:27.904Z,96.88
2018-01-20T19:29:55.653Z,96.94
2018-01-20T19:32:23.605Z,97.03
2018-01-20T19:34:51.473Z,97.08
2018-01-20T19:37:19.353Z,97.13
2018-01-20T19:39:47.143Z,97.17
2018-01-20T19:42:15.083Z,97.18
2018-01-20T19:44:45.322Z,97.20
2018-01-20T19:47:13.277Z,97.21
2018-01-20T19:49:41.251Z,97.21
2018-01-20T19:52:09.902Z,97.21
2018-01-20T19:54:39.521Z,97.31
2018-01-20T19:57:10.389Z,97.41
2018-01-20T19:59:38.266Z,97.51
2018-01-20T20:02:06.898Z,97.61
2018-01-20T20:04:35.834Z,97.65
2018-01-20T20:07:03.815Z,97.77
2018-01-20T20:09:31.795Z,97.85
2018-01-20T20:12:00.039Z,98.06
2018-01-20T20:14:29.772Z,98.10
2018-01-20T20:16:59.400Z,98.15
2018-01-20T20:19:28.300Z,98.19
2018-01-20T20:21:56.251Z,98.20
2018-01-20T20:24:24.455Z,98.22
2018-01-20T20:26:55.008Z,98.21
2018-01-20T20:29:23.096Z,98.21
2018-01-20T20:31:51.230Z,98.23
2018-01-20T20:34:19.274Z,98.25
2018-01-20T20:36:49.838Z,98.25
2018-01-20T20:39:19.484Z,98.25
2018-01-20T20:41:48.339Z,98.29
2018-01-20T20:44:18.045Z,98.33
2018-01-20T20:46:47.072Z,98.32
2018-01-20T20:49:15.218Z,98.33
2018-01-20T20:51:43.392Z,98.41
2018-01-20T20:54:11.265Z,98.44
2018-01-20T20:56:39.258Z,98.56
2018-01-20T20:59:07.100Z,98.62
2018-01-20T21:01:35.081Z,98.53
2018-01-20T21:04:03.091Z,98.42
2018-01-20T21:06:31.836Z,98.45
2018-01-20T21:08:59.791Z,98.56
2018-01-20T21:11:28.478Z,98.57
2018-01-20T21:13:56.675Z,98.53
2018-01-20T21:16:25.397Z,98.65
2018-01-20T21:18:53.359Z,98.69
2018-01-20T21:21:21.314Z,98.65
2018-01-20T21:23:50.902Z,98.69
2018-01-20T21:26:18.906Z,98.73
2018-01-20T21:28:46.777Z,98.73
2018-01-20T21:31:17.346Z,98.70
2018-01-20T21:33:45.469Z,98.66
2018-01-20T21:36:15.213Z,98.64
2018-01-20T21:38:44.915Z,98.64
2018-01-20T21:41:12.849Z,98.73
2018-01-20T21:43:40.837Z,98.77
2018-01-20T21:46:08.782Z,98.73
2018-01-20T21:48:38.335Z,98.68
2018-01-20T21:51:07.009Z,98.70
2018-01-20T21:53:35.686Z,98.70
2018-01-20T21:56:03.679Z,98.70
2018-01-20T21:58:33.249Z,98.70
2018-01-20T22:01:01.791Z,98.75
2018-01-20T22:03:29.771Z,98.86
2018-01-20T22:05:57.586Z,98.86
2018-01-20T22:08:25.348Z,98.77
2018-01-20T22:10:53.186Z,98.75
2018-01-20T22:13:20.856Z,98.83
2018-01-20T22:15:48.774Z,98.84
2018-01-20T22:18:16.539Z,98.81
2018-01-20T22:20:44.307Z,98.73
2018-01-20T22:23:12.002Z,98.67
2018-01-20T22:25:39.654Z,98.61
2018-01-20T22:28:07.381Z,98.60
2018-01-20T22:30:35.914Z,98.77
2018-01-20T22:33:03.640Z,98.79
2018-01-20T22:35:31.324Z,98.74
2018-01-20T22:37:59.064Z,98.66
2018-01-20T22:40:27.691Z,98.62
2018-01-20T22:42:55.547Z,98.59
2018-01-20T22:45:23.310Z,98.58
2018-01-20T22:47:51.083Z,98.58
2018-01-20T22:50:20.692Z,98.88
2018-01-20T22:52:50.119Z,98.94
2018-01-20T22:55:19.161Z,98.98
2018-01-20T22:57:48.426Z,98.99
2018-01-20T23:00:16.195Z,98.98
2018-01-20T23:02:45.589Z,99.00
2018-01-20T23:05:14.985Z,99.01
2018-01-20T23:07:42.674Z,98.97
2018-01-20T23:10:10.516Z,98.94
2018-01-20T23:12:38.955Z,98.89
2018-01-20T23:15:08.481Z,98.82
2018-01-20T23:17:36.208Z,98.79
2018-01-20T23:20:04.636Z,98.80
2018-01-20T23:22:32.271Z,98.76
2018-01-20T23:25:01.806Z,98.71
2018-01-20T23:27:29.609Z,98.68
2018-01-20T23:29:57.362Z,98.68
2018-01-20T23:32:25.071Z,98.63
2018-01-20T23:34:54.638Z,98.55
2018-01-20T23:37:24.655Z,98.50
2018-01-20T23:39:52.339Z,98.46
2018-01-20T23:42:20.053Z,98.39
2018-01-20T23:44:47.703Z,98.44
2018-01-20T23:47:15.776Z,98.41
2018-01-20T23:49:43.472Z,98.39
2018-01-20T23:52:11.944Z,98.37
2018-01-20T23:54:39.686Z,98.34
2018-01-20T23:57:07.356Z,98.37
2018-01-20T23:59:35.045Z,98.40
